createdAt,value
2022-11-06T00:02:20.529Z,3.60
2022-11-06T00:04:48.828Z,3.39
2022-11-06T00:07:16.170Z,3.31
2022-11-06T00:09:43.590Z,3.21
2022-11-06T00:12:10.882Z,3.25
2022-11-06T00:14:38.283Z,3.18
2022-11-06T00:17:05.786Z,3.21
2022-11-06T00:19:33.199Z,3.08
2022-11-06T00:22:00.692Z,3.31
2022-11-06T00:24:28.324Z,3.33
2022-11-06T00:26:55.761Z,3.30
2022-11-06T00:29:23.309Z,3.37
2022-11-06T00:31:50.943Z,3.35
2022-11-06T00:34:18.350Z,3.29
2022-11-06T00:36:45.735Z,3.23
2022-11-06T00:39:13.102Z,3.32
2022-11-06T00:41:40.570Z,3.26
2022-11-06T00:44:10.018Z,3.36
2022-11-06T00:46:37.734Z,3.36
2022-11-06T00:49:05.483Z,3.29
2022-11-06T00:51:41.309Z,3.30
2022-11-06T00:54:11.557Z,3.39
2022-11-06T00:56:39.418Z,3.39
2022-11-06T00:59:07.690Z,3.49
2022-11-06T01:01:37.956Z,3.36
2022-11-06T01:04:15.193Z,3.25
2022-11-06T01:06:46.806Z,3.32
2022-11-06T01:09:18.154Z,3.24
2022-11-06T01:14:36.345Z,3.33
2022-11-06T01:17:03.882Z,3.29
2022-11-06T01:19:31.257Z,3.20
2022-11-06T01:21:58.633Z,3.19
2022-11-06T01:24:27.877Z,3.21
2022-11-06T01:27:25.003Z,3.17
2022-11-06T01:29:43.987Z,3.12
2022-11-06T01:32:12.612Z,3.15
2022-11-06T01:34:40.121Z,3.13
2022-11-06T01:37:13.049Z,3.15
2022-11-06T01:39:42.184Z,3.16
2022-11-06T01:42:13.372Z,3.11
2022-11-06T01:44:45.986Z,3.06
2022-11-06T01:47:22.382Z,3.09
2022-11-06T01:49:53.302Z,3.29
2022-11-06T01:52:22.332Z,3.25
2022-11-06T01:54:53.962Z,3.14
2022-11-06T01:57:22.236Z,3.11
2022-11-06T01:59:51.617Z,3.17
2022-11-06T02:02:19.372Z,3.11
2022-11-06T02:04:51.242Z,3.17
2022-11-06T02:07:42.356Z,3.08
2022-11-06T02:10:10.241Z,3.06
2022-11-06T02:12:47.065Z,3.09
2022-11-06T02:15:23.491Z,3.17
2022-11-06T02:18:14.536Z,3.22
2022-11-06T02:21:11.649Z,3.30
2022-11-06T02:23:57.888Z,3.25
2022-11-06T02:26:34.399Z,3.41
2022-11-06T02:29:09.798Z,3.40
2022-11-06T02:31:42.228Z,3.41
2022-11-06T02:34:14.527Z,3.43
2022-11-06T02:36:55.266Z,3.38
2022-11-06T02:39:27.380Z,3.34
2022-11-06T02:41:58.407Z,3.29
2022-11-06T02:44:29.272Z,3.33
2022-11-06T02:47:01.250Z,3.36
2022-11-06T02:49:50.492Z,3.34
2022-11-06T02:52:23.404Z,3.41
2022-11-06T02:55:13.143Z,3.36
2022-11-06T02:57:46.479Z,3.33
2022-11-06T03:00:17.247Z,3.24
2022-11-06T03:02:55.390Z,3.19
2022-11-06T03:05:41.138Z,3.18
2022-11-06T03:08:26.601Z,3.17
2022-11-06T03:10:57.562Z,3.15
2022-11-06T03:13:47.525Z,3.16
2022-11-06T03:16:34.163Z,3.22
2022-11-06T03:19:33.891Z,3.16
2022-11-06T03:22:12.030Z,3.31
2022-11-06T03:25:09.146Z,3.31
2022-11-06T03:27:45.513Z,3.28
2022-11-06T03:30:16.776Z,3.26
2022-11-06T03:33:25.024Z,3.20
2022-11-06T03:36:01.458Z,3.21
2022-11-06T03:38:37.209Z,3.36
2022-11-06T03:41:14.355Z,3.22
2022-11-06T03:43:45.405Z,3.20
2022-11-06T03:46:19.551Z,3.40
2022-11-06T03:48:52.721Z,3.37
2022-11-06T03:51:29.064Z,3.37
2022-11-06T03:54:36.339Z,3.27
2022-11-06T03:57:25.455Z,3.27
2022-11-06T04:00:01.292Z,3.17
2022-11-06T04:02:32.103Z,3.22
2022-11-06T04:05:21.974Z,3.17
2022-11-06T04:08:12.863Z,3.17
2022-11-06T04:11:08.713Z,3.02
2022-11-06T04:13:57.542Z,2.97
2022-11-06T04:16:34.012Z,3.06
2022-11-06T04:19:01.632Z,3.15
2022-11-06T04:21:28.995Z,3.10
2022-11-06T04:24:36.470Z,3.10
2022-11-06T04:27:09.653Z,2.84
2022-11-06T04:29:57.296Z,2.90
2022-11-06T04:32:41.332Z,2.97
2022-11-06T04:35:25.569Z,2.94
2022-11-06T04:38:02.893Z,3.00
2022-11-06T04:40:45.386Z,3.11
2022-11-06T04:43:24.912Z,3.20
2022-11-06T04:45:56.142Z,3.18
2022-11-06T04:48:25.355Z,3.17
2022-11-06T04:50:58.930Z,3.06
2022-11-06T04:53:27.006Z,3.16
2022-11-06T04:56:01.220Z,3.15
2022-11-06T04:58:28.640Z,3.07
2022-11-06T05:00:56.027Z,3.05
2022-11-06T05:03:23.501Z,3.02
2022-11-06T05:05:50.903Z,2.96
2022-11-06T05:08:21.075Z,2.99
2022-11-06T05:10:48.937Z,2.99
2022-11-06T05:13:16.204Z,2.92
2022-11-06T05:15:43.541Z,2.78
2022-11-06T05:18:11.523Z,2.63
2022-11-06T05:20:39.187Z,2.64
2022-11-06T05:23:06.626Z,2.56
2022-11-06T05:25:36.487Z,2.44
2022-11-06T05:28:08.825Z,2.27
2022-11-06T05:30:37.576Z,2.01
2022-11-06T05:33:05.040Z,1.94
2022-11-06T05:35:43.063Z,1.89
2022-11-06T05:38:10.811Z,1.84
2022-11-06T05:40:38.676Z,1.74
2022-11-06T05:43:06.241Z,1.61
2022-11-06T05:45:33.722Z,1.64
2022-11-06T05:48:01.209Z,1.55
2022-11-06T05:50:28.564Z,1.49
2022-11-06T05:52:56.558Z,1.47
2022-11-06T05:55:24.008Z,1.45
2022-11-06T05:57:51.438Z,1.37
2022-11-06T06:00:18.973Z,1.37
2022-11-06T06:02:46.814Z,1.29
2022-11-06T06:05:15.015Z,1.29
2022-11-06T06:07:42.425Z,1.27
2022-11-06T06:10:10.431Z,1.23
2022-11-06T06:12:39.625Z,1.20
2022-11-06T06:15:08.253Z,1.21
2022-11-06T06:17:35.722Z,1.21
2022-11-06T06:20:03.528Z,1.29
2022-11-06T06:22:31.410Z,1.28
2022-11-06T06:24:59.172Z,1.35
2022-11-06T06:27:27.783Z,1.26
2022-11-06T06:29:55.420Z,1.26
2022-11-06T06:32:23.080Z,1.28
2022-11-06T06:34:50.469Z,1.35
2022-11-06T06:37:20.130Z,1.41
2022-11-06T06:39:47.984Z,1.39
2022-11-06T06:42:15.567Z,1.39
2022-11-06T06:44:43.035Z,1.40
2022-11-06T06:47:10.502Z,1.40
2022-11-06T06:49:37.933Z,1.52
2022-11-06T06:52:05.802Z,1.55
2022-11-06T06:54:33.087Z,1.54
2022-11-06T06:57:00.349Z,1.65
2022-11-06T06:59:31.643Z,1.64
2022-11-06T07:01:59.327Z,1.70
2022-11-06T07:04:26.830Z,1.79
2022-11-06T07:06:55.195Z,1.80
2022-11-06T07:09:24.086Z,1.75
2022-11-06T07:11:51.491Z,1.77
2022-11-06T07:14:19.325Z,1.82
2022-11-06T07:16:52.552Z,1.91
2022-11-06T07:19:21.061Z,2.00
2022-11-06T07:21:52.704Z,2.02
2022-11-06T07:24:21.199Z,2.08
2022-11-06T07:26:48.732Z,2.06
2022-11-06T07:29:16.341Z,2.12
2022-11-06T07:31:43.904Z,2.17
2022-11-06T07:34:11.515Z,2.22
2022-11-06T07:36:39.032Z,2.31
2022-11-06T07:39:06.376Z,2.48
2022-11-06T07:41:34.808Z,2.77
2022-11-06T07:44:02.419Z,3.04
2022-11-06T07:46:32.085Z,3.30
2022-11-06T07:48:59.782Z,3.65
2022-11-06T07:51:27.504Z,4.06
2022-11-06T07:53:54.866Z,4.65
2022-11-06T07:56:22.323Z,4.91
2022-11-06T07:58:49.788Z,5.07
2022-11-06T08:01:19.200Z,4.80
2022-11-06T08:03:47.097Z,5.00
2022-11-06T08:06:14.637Z,5.40
2022-11-06T08:08:42.093Z,5.80
2022-11-06T08:11:11.528Z,6.23
2022-11-06T08:13:39.835Z,6.24
2022-11-06T08:16:09.857Z,6.64
2022-11-06T08:18:37.791Z,7.34
2022-11-06T08:21:05.650Z,6.78
2022-11-06T08:23:33.997Z,6.34
2022-11-06T08:26:04.073Z,6.72
2022-11-06T08:28:31.601Z,6.66
2022-11-06T08:31:03.861Z,6.35
2022-11-06T08:33:31.450Z,6.15
2022-11-06T08:36:06.527Z,6.54
2022-11-06T08:38:34.154Z,6.50
2022-11-06T08:41:09.196Z,6.39
2022-11-06T08:43:37.602Z,6.45
2022-11-06T08:46:06.670Z,6.19
2022-11-06T08:48:34.626Z,6.35
2022-11-06T08:51:04.000Z,6.36
2022-11-06T08:53:31.922Z,6.43
2022-11-06T08:55:59.261Z,6.41
2022-11-06T08:58:26.610Z,6.41
2022-11-06T09:00:54.077Z,6.66
2022-11-06T09:03:21.835Z,7.32
2022-11-06T09:05:49.318Z,7.76
2022-11-06T09:08:17.084Z,8.00
2022-11-06T09:10:44.907Z,8.09
2022-11-06T09:13:12.814Z,8.07
2022-11-06T09:15:40.606Z,8.33
2022-11-06T09:18:08.557Z,8.48
2022-11-06T09:20:36.188Z,8.45
2022-11-06T09:23:05.991Z,8.20
2022-11-06T09:25:34.152Z,8.51
2022-11-06T09:28:01.722Z,8.61
2022-11-06T09:30:32.032Z,8.80
2022-11-06T09:33:01.999Z,8.66
2022-11-06T09:35:32.172Z,8.70
2022-11-06T09:38:06.701Z,8.54
2022-11-06T09:40:43.932Z,8.62
2022-11-06T09:46:40.457Z,9.03
2022-11-06T09:49:22.659Z,9.16
2022-11-06T09:51:59.479Z,9.21
2022-11-06T09:54:43.716Z,9.35
2022-11-06T09:57:34.687Z,9.21
2022-11-06T10:00:04.280Z,9.55
2022-11-06T10:02:43.030Z,9.78
2022-11-06T10:05:16.606Z,9.85
2022-11-06T10:07:45.852Z,9.94
2022-11-06T10:10:19.091Z,10.00
2022-11-06T10:13:17.102Z,9.78
2022-11-06T10:15:54.775Z,9.82
2022-11-06T10:18:39.677Z,9.86
2022-11-06T10:21:20.991Z,9.85
2022-11-06T10:23:59.359Z,9.72
2022-11-06T10:26:39.866Z,9.55
2022-11-06T10:29:25.972Z,9.76
2022-11-06T10:32:12.290Z,9.74
2022-11-06T10:34:42.705Z,9.71
2022-11-06T10:37:28.375Z,9.82
2022-11-06T10:39:58.934Z,10.14
2022-11-06T10:42:38.491Z,10.22
2022-11-06T10:45:13.469Z,10.34
2022-11-06T10:47:48.817Z,10.40
2022-11-06T10:50:18.765Z,10.68
2022-11-06T10:52:51.562Z,10.72
2022-11-06T10:55:45.948Z,10.86
2022-11-06T10:58:21.744Z,10.72
2022-11-06T11:00:50.601Z,10.80
2022-11-06T11:03:29.913Z,10.66
2022-11-06T11:05:57.820Z,10.83
2022-11-06T11:08:34.790Z,10.75
2022-11-06T11:11:06.027Z,10.78
2022-11-06T11:13:34.192Z,10.92
2022-11-06T11:16:05.211Z,11.14
2022-11-06T11:18:34.131Z,11.23
2022-11-06T11:21:06.466Z,11.27
2022-11-06T11:23:34.151Z,11.15
2022-11-06T11:26:25.909Z,11.25
2022-11-06T11:28:58.976Z,11.14
2022-11-06T11:31:36.684Z,11.15
2022-11-06T11:34:07.407Z,11.21
2022-11-06T11:36:51.068Z,11.04
2022-11-06T11:39:22.105Z,11.29
2022-11-06T11:41:49.762Z,11.30
2022-11-06T11:44:19.724Z,11.43
2022-11-06T11:46:55.508Z,11.43
2022-11-06T11:49:37.806Z,11.51
2022-11-06T11:52:13.641Z,11.29
2022-11-06T11:54:51.027Z,11.18
2022-11-06T11:57:26.052Z,11.26
2022-11-06T12:00:00.604Z,11.20
2022-11-06T12:02:42.574Z,11.25
2022-11-06T12:05:16.971Z,11.18
2022-11-06T12:07:53.062Z,11.29
2022-11-06T12:10:44.517Z,11.27
2022-11-06T12:13:22.289Z,11.43
2022-11-06T12:16:00.600Z,11.46
2022-11-06T12:18:37.377Z,11.47
2022-11-06T12:21:23.650Z,11.47
2022-11-06T12:24:00.013Z,11.43
2022-11-06T12:26:45.626Z,11.49
2022-11-06T12:29:22.677Z,11.49
2022-11-06T12:32:07.029Z,11.50
2022-11-06T12:34:38.674Z,11.34
2022-11-06T12:37:18.716Z,11.47
2022-11-06T12:39:54.478Z,11.44
2022-11-06T12:42:26.077Z,11.40
2022-11-06T12:44:53.799Z,11.23
2022-11-06T12:47:26.546Z,11.24
2022-11-06T12:50:33.404Z,11.27
2022-11-06T12:53:10.176Z,11.37
2022-11-06T12:55:49.924Z,11.26
2022-11-06T12:58:55.637Z,11.23
2022-11-06T13:02:00.358Z,11.16
2022-11-06T13:05:06.331Z,11.00
2022-11-06T13:08:00.701Z,11.01
2022-11-06T13:10:44.961Z,11.03
2022-11-06T13:13:31.009Z,11.04
2022-11-06T13:15:58.528Z,11.09
2022-11-06T13:18:35.993Z,11.13
2022-11-06T13:21:29.620Z,11.04
2022-11-06T13:24:32.941Z,11.03
2022-11-06T13:27:10.980Z,11.15
2022-11-06T13:29:39.570Z,11.02
2022-11-06T13:32:30.417Z,11.04
2022-11-06T13:34:59.981Z,11.07
2022-11-06T13:37:40.866Z,10.93
2022-11-06T13:40:20.750Z,10.81
2022-11-06T13:43:24.579Z,10.82
2022-11-06T13:45:56.936Z,10.72
2022-11-06T13:48:37.644Z,10.62
2022-11-06T13:51:39.762Z,10.59
2022-11-06T13:54:07.626Z,10.54
2022-11-06T13:56:38.138Z,10.53
2022-11-06T13:59:14.741Z,10.50
2022-11-06T14:01:50.281Z,10.47
2022-11-06T14:04:20.911Z,10.47
2022-11-06T14:06:55.125Z,10.35
2022-11-06T14:09:26.530Z,10.20
2022-11-06T14:11:57.279Z,10.11
2022-11-06T14:14:30.368Z,10.07
2022-11-06T14:17:24.481Z,10.00
2022-11-06T14:19:52.508Z,10.04
2022-11-06T14:22:37.785Z,9.94
2022-11-06T14:25:30.054Z,9.82
2022-11-06T14:27:57.599Z,9.69
2022-11-06T14:30:57.469Z,9.60
2022-11-06T14:33:41.056Z,9.69
2022-11-06T14:36:15.118Z,9.59
2022-11-06T14:38:43.003Z,9.49
2022-11-06T14:41:32.318Z,9.33
2022-11-06T14:44:21.412Z,9.30
2022-11-06T14:47:03.456Z,9.14
2022-11-06T14:49:36.922Z,9.01
2022-11-06T14:52:12.137Z,8.98
2022-11-06T14:54:44.095Z,8.84
2022-11-06T14:57:16.830Z,8.76
2022-11-06T14:59:45.217Z,8.76
2022-11-06T15:02:29.567Z,8.40
2022-11-06T15:05:02.820Z,8.18
2022-11-06T15:08:03.808Z,8.01
2022-11-06T15:10:43.601Z,7.71
2022-11-06T15:13:17.709Z,7.55
2022-11-06T15:15:50.926Z,7.22
2022-11-06T15:18:23.238Z,6.93
2022-11-06T15:20:56.987Z,6.77
2022-11-06T15:23:48.312Z,6.67
2022-11-06T15:26:39.786Z,6.49
2022-11-06T15:29:29.373Z,6.39
2022-11-06T15:32:15.905Z,6.22
2022-11-06T15:34:59.026Z,6.05
2022-11-06T15:37:33.015Z,6.06
2022-11-06T15:40:01.872Z,6.01
2022-11-06T15:42:34.635Z,5.99
2022-11-06T15:45:10.090Z,5.87
2022-11-06T15:47:37.640Z,5.75
2022-11-06T15:50:28.395Z,5.71
2022-11-06T15:53:12.524Z,5.68
2022-11-06T15:56:08.681Z,5.72
2022-11-06T15:58:38.033Z,5.63
2022-11-06T16:01:07.917Z,5.62
2022-11-06T16:03:57.360Z,5.40
2022-11-06T16:06:25.677Z,5.45
2022-11-06T16:08:53.200Z,5.36
2022-11-06T16:11:21.230Z,5.33
2022-11-06T16:13:49.329Z,5.23
2022-11-06T16:16:40.724Z,5.08
2022-11-06T16:19:33.815Z,5.01
2022-11-06T16:22:28.976Z,4.99
2022-11-06T16:25:00.665Z,4.91
2022-11-06T16:27:34.650Z,4.87
2022-11-06T16:30:06.686Z,4.82
2022-11-06T16:32:40.973Z,4.80
2022-11-06T16:35:34.604Z,4.72
2022-11-06T16:38:40.397Z,4.71
2022-11-06T16:41:17.393Z,4.76
2022-11-06T16:43:45.306Z,4.88
2022-11-06T16:46:13.280Z,4.80
2022-11-06T16:48:42.741Z,4.74
2022-11-06T16:51:32.725Z,4.76
2022-11-06T16:54:02.029Z,4.69
2022-11-06T16:56:32.912Z,4.65
2022-11-06T16:59:15.151Z,4.55
2022-11-06T17:01:46.788Z,4.59
2022-11-06T17:04:35.631Z,4.57
2022-11-06T17:07:03.968Z,4.52
2022-11-06T17:09:34.222Z,4.49
2022-11-06T17:12:03.344Z,4.48
2022-11-06T17:14:33.089Z,4.56
2022-11-06T17:17:02.225Z,4.54
2022-11-06T17:19:30.592Z,4.54
2022-11-06T17:21:58.262Z,4.53
2022-11-06T17:24:41.605Z,4.51
2022-11-06T17:27:09.934Z,4.46
2022-11-06T17:29:38.982Z,4.50
2022-11-06T17:32:06.469Z,4.48
2022-11-06T17:34:34.155Z,4.52
2022-11-06T17:37:01.855Z,4.46
2022-11-06T17:39:30.297Z,4.48
2022-11-06T17:41:57.760Z,4.48
2022-11-06T17:44:25.391Z,4.44
2022-11-06T17:46:52.872Z,4.42
2022-11-06T17:49:20.313Z,4.34
2022-11-06T17:52:01.342Z,4.43
2022-11-06T17:54:34.070Z,4.46
2022-11-06T17:57:04.551Z,4.32
2022-11-06T17:59:32.268Z,4.28
2022-11-06T18:02:00.335Z,4.34
2022-11-06T18:04:31.289Z,4.23
2022-11-06T18:06:58.960Z,4.29
2022-11-06T18:09:27.031Z,4.23
2022-11-06T18:11:55.528Z,4.24
2022-11-06T18:14:25.285Z,4.21
2022-11-06T18:16:55.197Z,4.20
2022-11-06T18:19:24.789Z,4.23
2022-11-06T18:21:53.402Z,4.15
2022-11-06T18:24:21.268Z,4.18
2022-11-06T18:26:49.035Z,4.22
2022-11-06T18:29:17.008Z,4.26
2022-11-06T18:31:44.668Z,4.22
2022-11-06T18:34:19.492Z,4.20
2022-11-06T18:36:50.220Z,4.18
2022-11-06T18:39:18.251Z,4.21
2022-11-06T18:41:45.595Z,4.25
2022-11-06T18:44:13.068Z,4.28
2022-11-06T18:46:41.018Z,4.28
2022-11-06T18:49:11.744Z,4.32
2022-11-06T18:51:42.071Z,4.38
2022-11-06T18:54:11.454Z,4.35
2022-11-06T18:56:39.743Z,4.29
2022-11-06T18:59:12.441Z,4.34
2022-11-06T19:01:41.634Z,4.37
2022-11-06T19:04:11.013Z,4.32
2022-11-06T19:06:40.247Z,4.38
2022-11-06T19:09:09.011Z,4.40
2022-11-06T19:11:36.912Z,4.35
2022-11-06T19:14:05.176Z,4.44
2022-11-06T19:16:32.578Z,4.47
2022-11-06T19:21:31.910Z,4.57
2022-11-06T19:24:03.889Z,4.49
2022-11-06T19:26:34.243Z,4.58
2022-11-06T19:29:02.365Z,4.52
2022-11-06T19:31:32.032Z,4.55
2022-11-06T19:34:00.500Z,4.51
2022-11-06T19:36:28.762Z,4.53
2022-11-06T19:38:58.674Z,4.48
2022-11-06T19:41:27.030Z,4.53
2022-11-06T19:43:54.890Z,4.52
2022-11-06T19:46:26.889Z,4.51
2022-11-06T19:48:55.914Z,4.53
2022-11-06T19:51:23.593Z,4.51
2022-11-06T19:53:54.821Z,4.53
2022-11-06T19:56:23.091Z,4.55
2022-11-06T19:58:52.238Z,4.56
2022-11-06T20:01:21.835Z,4.64
2022-11-06T20:03:49.537Z,4.57
2022-11-06T20:06:17.233Z,4.61
2022-11-06T20:08:48.502Z,4.61
2022-11-06T20:11:16.673Z,4.58
2022-11-06T20:13:45.612Z,4.59
2022-11-06T20:16:16.964Z,4.64
2022-11-06T20:18:50.464Z,4.65
2022-11-06T20:21:18.442Z,4.74
2022-11-06T20:23:46.501Z,4.87
2022-11-06T20:26:15.497Z,4.80
2022-11-06T20:28:43.212Z,4.88
2022-11-06T20:31:12.265Z,4.89
2022-11-06T20:33:40.442Z,4.88
2022-11-06T20:36:23.110Z,4.93
2022-11-06T20:38:53.825Z,4.95
2022-11-06T20:41:21.952Z,4.94
2022-11-06T20:43:49.820Z,5.01
2022-11-06T20:46:18.343Z,4.96
2022-11-06T20:48:46.491Z,4.94
2022-11-06T20:51:26.146Z,5.02
2022-11-06T20:53:54.421Z,4.98
2022-11-06T20:56:25.556Z,4.91
2022-11-06T20:58:55.049Z,4.88
2022-11-06T21:01:25.433Z,4.99
2022-11-06T21:03:54.274Z,4.99
2022-11-06T21:06:24.411Z,5.07
2022-11-06T21:08:54.323Z,5.03
2022-11-06T21:11:25.460Z,5.01
2022-11-06T21:13:54.899Z,5.01
2022-11-06T21:16:27.212Z,5.01
2022-11-06T21:18:54.724Z,5.01
2022-11-06T21:21:27.877Z,5.01
2022-11-06T21:23:56.500Z,4.98
2022-11-06T21:26:29.162Z,5.01
2022-11-06T21:28:57.411Z,5.01
2022-11-06T21:31:27.815Z,5.02
2022-11-06T21:33:58.486Z,5.02
2022-11-06T21:36:32.099Z,5.03
2022-11-06T21:39:02.518Z,4.99
2022-11-06T21:41:34.162Z,5.01
2022-11-06T21:44:02.763Z,5.01
2022-11-06T21:46:30.267Z,5.07
2022-11-06T21:48:58.308Z,5.15
2022-11-06T21:51:28.771Z,5.18
2022-11-06T21:54:15.126Z,5.17
2022-11-06T21:56:43.321Z,5.27
2022-11-06T21:59:13.410Z,5.27
2022-11-06T22:01:42.039Z,5.22
2022-11-06T22:04:10.893Z,5.22
2022-11-06T22:06:43.722Z,5.26
2022-11-06T22:09:13.057Z,5.25
2022-11-06T22:11:44.478Z,5.30
2022-11-06T22:14:14.959Z,5.24
2022-11-06T22:16:46.146Z,5.27
2022-11-06T22:19:14.708Z,5.37
2022-11-06T22:21:45.550Z,5.30
2022-11-06T22:24:16.246Z,5.28
2022-11-06T22:30:05.588Z,5.32
2022-11-06T22:32:32.981Z,5.34
2022-11-06T22:35:00.650Z,5.38
2022-11-06T22:37:28.136Z,5.44
2022-11-06T22:39:55.950Z,5.52
2022-11-06T22:42:23.396Z,5.54
2022-11-06T22:44:51.249Z,5.58
2022-11-06T22:47:18.794Z,5.66
2022-11-06T22:49:46.243Z,5.78
2022-11-06T22:52:13.770Z,5.83
2022-11-06T22:54:41.482Z,5.79
2022-11-06T22:57:09.668Z,5.82
2022-11-06T22:59:37.320Z,5.84
2022-11-06T23:02:04.951Z,5.84
2022-11-06T23:04:32.490Z,5.87
2022-11-06T23:07:00.243Z,5.83
2022-11-06T23:09:27.930Z,5.90
2022-11-06T23:11:55.724Z,5.91
2022-11-06T23:14:23.045Z,5.82
2022-11-06T23:17:00.921Z,5.74
2022-11-06T23:19:30.736Z,5.74
2022-11-06T23:22:17.053Z,5.67
2022-11-06T23:24:44.834Z,5.84
2022-11-06T23:27:12.494Z,5.85
2022-11-06T23:29:40.105Z,5.93
2022-11-06T23:32:08.413Z,5.83
2022-11-06T23:34:35.785Z,5.97
2022-11-06T23:37:04.984Z,5.78
2022-11-06T23:39:33.304Z,5.73
2022-11-06T23:42:02.732Z,5.77
2022-11-06T23:44:51.409Z,5.85
2022-11-06T23:47:22.516Z,5.81
2022-11-06T23:49:51.291Z,5.79
2022-11-06T23:52:20.703Z,5.78
2022-11-06T23:54:56.609Z,5.87
2022-11-06T23:57:27.638Z,5.83
